sensor_id;sensor_type;location;lat;lon;timestamp;pressure;altitude;pressure_sealevel;temperature;humidity
53546;BME280;39432;51.902;10.844;2023-05-19T00:01:45;100566.34;;;9.02;100.00
53546;BME280;39432;51.902;10.844;2023-05-19T00:04:17;100579.84;;;8.97;100.00
53546;BME280;39432;51.902;10.844;2023-05-19T00:06:49;100574.56;;;9.20;100.00
53546;BME280;39432;51.902;10.844;2023-05-19T00:09:19;100576.06;;;9.60;100.00
53546;BME280;39432;51.902;10.844;2023-05-19T00:11:52;100569.38;;;9.37;100.00
53546;BME280;39432;51.902;10.844;2023-05-19T00:14:23;100564.97;;;9.55;100.00
53546;BME280;39432;51.902;10.844;2023-05-19T00:16:55;100568.13;;;8.90;100.00
53546;BME280;39432;51.902;10.844;2023-05-19T00:19:27;100572.16;;;9.31;100.00
53546;BME280;39432;51.902;10.844;2023-05-19T00:21:58;100577.72;;;9.42;100.00
53546;BME280;39432;51.902;10.844;2023-05-19T00:24:27;100573.84;;;9.32;100.00
53546;BME280;39432;51.902;10.844;2023-05-19T00:27:00;100567.44;;;9.19;100.00
53546;BME280;39432;51.902;10.844;2023-05-19T00:29:29;100576.16;;;9.28;100.00
53546;BME280;39432;51.902;10.844;2023-05-19T00:31:59;100575.06;;;9.91;100.00
53546;BME280;39432;51.902;10.844;2023-05-19T00:34:29;100573.09;;;9.80;100.00
53546;BME280;39432;51.902;10.844;2023-05-19T00:36:59;100567.38;;;9.26;100.00
53546;BME280;39432;51.902;10.844;2023-05-19T00:39:28;100563.66;;;10.12;100.00
53546;BME280;39432;51.902;10.844;2023-05-19T00:42:01;100561.69;;;9.83;100.00
53546;BME280;39432;51.902;10.844;2023-05-19T00:44:31;100565.75;;;9.80;100.00
53546;BME280;39432;51.902;10.844;2023-05-19T00:47:01;100564.28;;;9.96;100.00
53546;BME280;39432;51.902;10.844;2023-05-19T00:49:31;100557.13;;;10.43;100.00
53546;BME280;39432;51.902;10.844;2023-05-19T00:52:01;100562.56;;;10.32;100.00
53546;BME280;39432;51.902;10.844;2023-05-19T00:54:32;100570.13;;;9.81;100.00
53546;BME280;39432;51.902;10.844;2023-05-19T00:57:04;100570.19;;;10.11;100.00
53546;BME280;39432;51.902;10.844;2023-05-19T00:59:35;100565.72;;;11.12;100.00
53546;BME280;39432;51.902;10.844;2023-05-19T01:02:04;100563.56;;;11.14;100.00
53546;BME280;39432;51.902;10.844;2023-05-19T01:04:35;100558.44;;;10.41;100.00
53546;BME280;39432;51.902;10.844;2023-05-19T01:07:07;100561.88;;;10.90;100.00
53546;BME280;39432;51.902;10.844;2023-05-19T01:09:38;100560.09;;;10.42;100.00
53546;BME280;39432;51.902;10.844;2023-05-19T01:12:12;100567.25;;;9.94;100.00
53546;BME280;39432;51.902;10.844;2023-05-19T01:14:41;100557.34;;;10.84;100.00
53546;BME280;39432;51.902;10.844;2023-05-19T01:17:17;100558.97;;;10.61;100.00
53546;BME280;39432;51.902;10.844;2023-05-19T01:19:56;100550.69;;;10.79;100.00
53546;BME280;39432;51.902;10.844;2023-05-19T01:26:01;100554.22;;;10.68;100.00
53546;BME280;39432;51.902;10.844;2023-05-19T01:28:50;100560.38;;;10.22;100.00
53546;BME280;39432;51.902;10.844;2023-05-19T01:31:25;100552.03;;;10.47;100.00
53546;BME280;39432;51.902;10.844;2023-05-19T01:33:56;100554.03;;;10.21;100.00
53546;BME280;39432;51.902;10.844;2023-05-19T01:36:27;100556.78;;;9.73;100.00
53546;BME280;39432;51.902;10.844;2023-05-19T01:38:58;100556.84;;;9.66;100.00
53546;BME280;39432;51.902;10.844;2023-05-19T01:41:29;100555.50;;;9.75;100.00
53546;BME280;39432;51.902;10.844;2023-05-19T01:44:00;100558.56;;;10.46;100.00
53546;BME280;39432;51.902;10.844;2023-05-19T01:46:33;100560.34;;;9.92;100.00
53546;BME280;39432;51.902;10.844;2023-05-19T01:49:03;100559.38;;;10.35;100.00
53546;BME280;39432;51.902;10.844;2023-05-19T01:51:34;100559.16;;;9.51;100.00
53546;BME280;39432;51.902;10.844;2023-05-19T01:54:04;100563.97;;;9.49;100.00
53546;BME280;39432;51.902;10.844;2023-05-19T01:56:40;100568.38;;;9.87;100.00
53546;BME280;39432;51.902;10.844;2023-05-19T01:59:23;100559.59;;;10.87;100.00
53546;BME280;39432;51.902;10.844;2023-05-19T02:02:01;100564.38;;;10.38;100.00
53546;BME280;39432;51.902;10.844;2023-05-19T02:04:40;100562.41;;;10.26;100.00
53546;BME280;39432;51.902;10.844;2023-05-19T02:07:15;100556.13;;;10.26;100.00
53546;BME280;39432;51.902;10.844;2023-05-19T02:09:50;100563.97;;;10.04;100.00
53546;BME280;39432;51.902;10.844;2023-05-19T02:12:27;100558.59;;;10.58;100.00
53546;BME280;39432;51.902;10.844;2023-05-19T02:15:03;100565.16;;;9.78;100.00
53546;BME280;39432;51.902;10.844;2023-05-19T02:17:38;100557.84;;;10.20;100.00
53546;BME280;39432;51.902;10.844;2023-05-19T02:20:14;100559.94;;;9.88;100.00
53546;BME280;39432;51.902;10.844;2023-05-19T02:22:44;100561.25;;;9.49;100.00
53546;BME280;39432;51.902;10.844;2023-05-19T02:25:14;100570.06;;;9.51;100.00
53546;BME280;39432;51.902;10.844;2023-05-19T02:27:44;100559.75;;;9.35;100.00
53546;BME280;39432;51.902;10.844;2023-05-19T02:30:14;100558.34;;;9.26;100.00
53546;BME280;39432;51.902;10.844;2023-05-19T02:32:47;100567.34;;;8.83;100.00
53546;BME280;39432;51.902;10.844;2023-05-19T02:35:17;100559.81;;;8.53;100.00
53546;BME280;39432;51.902;10.844;2023-05-19T02:37:47;100553.53;;;8.78;100.00
53546;BME280;39432;51.902;10.844;2023-05-19T02:40:18;100567.94;;;8.60;100.00
53546;BME280;39432;51.902;10.844;2023-05-19T02:42:48;100556.94;;;8.98;100.00
53546;BME280;39432;51.902;10.844;2023-05-19T02:45:18;100559.00;;;8.78;100.00
53546;BME280;39432;51.902;10.844;2023-05-19T02:47:50;100556.19;;;9.09;100.00
53546;BME280;39432;51.902;10.844;2023-05-19T02:50:20;100556.19;;;9.09;100.00
53546;BME280;39432;51.902;10.844;2023-05-19T02:52:50;100556.69;;;9.43;100.00
53546;BME280;39432;51.902;10.844;2023-05-19T02:55:20;100556.09;;;8.97;100.00
53546;BME280;39432;51.902;10.844;2023-05-19T02:57:50;100554.22;;;8.98;100.00
53546;BME280;39432;51.902;10.844;2023-05-19T03:00:20;100548.91;;;8.78;100.00
53546;BME280;39432;51.902;10.844;2023-05-19T03:02:52;100553.59;;;8.96;100.00
53546;BME280;39432;51.902;10.844;2023-05-19T03:05:22;100556.63;;;9.06;100.00
53546;BME280;39432;51.902;10.844;2023-05-19T03:07:52;100558.59;;;9.24;100.00
53546;BME280;39432;51.902;10.844;2023-05-19T03:10:22;100558.69;;;9.54;100.00
53546;BME280;39432;51.902;10.844;2023-05-19T03:12:51;100558.00;;;8.97;100.00
53546;BME280;39432;51.902;10.844;2023-05-19T03:15:21;100552.22;;;9.30;100.00
53546;BME280;39432;51.902;10.844;2023-05-19T03:17:53;100554.94;;;8.87;100.00
53546;BME280;39432;51.902;10.844;2023-05-19T03:20:23;100554.75;;;8.82;100.00
53546;BME280;39432;51.902;10.844;2023-05-19T03:22:53;100550.88;;;8.96;100.00
53546;BME280;39432;51.902;10.844;2023-05-19T03:25:23;100558.78;;;8.09;100.00
53546;BME280;39432;51.902;10.844;2023-05-19T03:27:53;100550.25;;;8.94;100.00
53546;BME280;39432;51.902;10.844;2023-05-19T03:30:23;100555.25;;;8.72;100.00
53546;BME280;39432;51.902;10.844;2023-05-19T03:33:19;100551.13;;;9.13;100.00
53546;BME280;39432;51.902;10.844;2023-05-19T03:35:50;100553.66;;;8.64;100.00
53546;BME280;39432;51.902;10.844;2023-05-19T03:38:20;100568.09;;;8.33;100.00
53546;BME280;39432;51.902;10.844;2023-05-19T03:40:56;100566.00;;;8.29;100.00
53546;BME280;39432;51.902;10.844;2023-05-19T03:43:26;100563.63;;;9.02;100.00
53546;BME280;39432;51.902;10.844;2023-05-19T03:45:59;100559.66;;;8.98;100.00
53546;BME280;39432;51.902;10.844;2023-05-19T03:48:53;100564.56;;;8.64;100.00
53546;BME280;39432;51.902;10.844;2023-05-19T03:51:52;100561.06;;;9.50;100.00
53546;BME280;39432;51.902;10.844;2023-05-19T03:54:30;100557.31;;;9.45;100.00
53546;BME280;39432;51.902;10.844;2023-05-19T03:57:00;100555.97;;;9.11;100.00
53546;BME280;39432;51.902;10.844;2023-05-19T03:59:30;100554.06;;;9.11;100.00
53546;BME280;39432;51.902;10.844;2023-05-19T04:02:02;100559.94;;;9.88;100.00
53546;BME280;39432;51.902;10.844;2023-05-19T04:04:36;100547.69;;;10.09;100.00
53546;BME280;39432;51.902;10.844;2023-05-19T04:07:06;100563.53;;;9.70;100.00
53546;BME280;39432;51.902;10.844;2023-05-19T04:09:36;100568.34;;;9.13;100.00
53546;BME280;39432;51.902;10.844;2023-05-19T04:12:07;100575.00;;;8.67;100.00
53546;BME280;39432;51.902;10.844;2023-05-19T04:14:36;100577.09;;;8.97;100.00
53546;BME280;39432;51.902;10.844;2023-05-19T04:17:08;100579.53;;;9.30;100.00
53546;BME280;39432;51.902;10.844;2023-05-19T04:19:41;100580.03;;;9.20;100.00
53546;BME280;39432;51.902;10.844;2023-05-19T04:22:11;100572.50;;;9.16;100.00
53546;BME280;39432;51.902;10.844;2023-05-19T04:24:40;100581.94;;;8.95;100.00
53546;BME280;39432;51.902;10.844;2023-05-19T04:27:10;100577.03;;;9.29;100.00
53546;BME280;39432;51.902;10.844;2023-05-19T04:29:42;100580.31;;;9.56;100.00
53546;BME280;39432;51.902;10.844;2023-05-19T04:32:14;100579.94;;;9.70;100.00
53546;BME280;39432;51.902;10.844;2023-05-19T04:34:47;100567.34;;;10.36;100.00
53546;BME280;39432;51.902;10.844;2023-05-19T04:37:22;100570.25;;;10.04;100.00
53546;BME280;39432;51.902;10.844;2023-05-19T04:39:52;100567.56;;;9.86;100.00
53546;BME280;39432;51.902;10.844;2023-05-19T04:42:24;100563.31;;;10.39;100.00
53546;BME280;39432;51.902;10.844;2023-05-19T04:44:59;100573.25;;;9.66;100.00
53546;BME280;39432;51.902;10.844;2023-05-19T04:47:30;100565.66;;;9.68;100.00
53546;BME280;39432;51.902;10.844;2023-05-19T04:50:06;100568.56;;;10.40;100.00
53546;BME280;39432;51.902;10.844;2023-05-19T04:52:37;100569.66;;;10.02;100.00
53546;BME280;39432;51.902;10.844;2023-05-19T04:55:08;100569.13;;;9.94;100.00
53546;BME280;39432;51.902;10.844;2023-05-19T04:57:39;100563.78;;;10.77;100.00
53546;BME280;39432;51.902;10.844;2023-05-19T05:00:11;100561.13;;;11.76;100.00
53546;BME280;39432;51.902;10.844;2023-05-19T05:02:57;100559.44;;;12.73;100.00
53546;BME280;39432;51.902;10.844;2023-05-19T05:05:34;100558.47;;;12.05;100.00
53546;BME280;39432;51.902;10.844;2023-05-19T05:08:04;100554.78;;;12.73;100.00
53546;BME280;39432;51.902;10.844;2023-05-19T05:10:39;100538.78;;;13.37;100.00
53546;BME280;39432;51.902;10.844;2023-05-19T05:13:09;100549.19;;;15.04;100.00
53546;BME280;39432;51.902;10.844;2023-05-19T05:15:40;100547.63;;;14.81;99.55
53546;BME280;39432;51.902;10.844;2023-05-19T05:18:10;100549.88;;;15.64;96.06
53546;BME280;39432;51.902;10.844;2023-05-19T05:20:44;100548.13;;;15.52;93.90
53546;BME280;39432;51.902;10.844;2023-05-19T05:23:16;100549.19;;;14.72;91.97
53546;BME280;39432;51.902;10.844;2023-05-19T05:25:48;100551.03;;;13.47;100.00
53546;BME280;39432;51.902;10.844;2023-05-19T05:28:19;100550.88;;;13.36;100.00
53546;BME280;39432;51.902;10.844;2023-05-19T05:30:49;100562.88;;;12.34;100.00
53546;BME280;39432;51.902;10.844;2023-05-19T05:33:18;100557.28;;;13.42;100.00
53546;BME280;39432;51.902;10.844;2023-05-19T05:35:53;100551.78;;;15.21;99.54
53546;BME280;39432;51.902;10.844;2023-05-19T05:38:24;100556.50;;;14.56;92.39
53546;BME280;39432;51.902;10.844;2023-05-19T05:40:54;100552.22;;;14.70;90.27
53546;BME280;39432;51.902;10.844;2023-05-19T05:43:24;100557.13;;;14.41;88.20
53546;BME280;39432;51.902;10.844;2023-05-19T05:45:59;100559.69;;;13.77;98.80
53546;BME280;39432;51.902;10.844;2023-05-19T05:48:30;100553.13;;;14.81;95.13
53546;BME280;39432;51.902;10.844;2023-05-19T05:51:03;100559.38;;;14.71;91.79
53546;BME280;39432;51.902;10.844;2023-05-19T05:53:40;100550.00;;;14.18;93.92
53546;BME280;39432;51.902;10.844;2023-05-19T05:56:14;100557.38;;;14.94;94.12
53546;BME280;39432;51.902;10.844;2023-05-19T05:58:49;100557.31;;;16.26;77.63
53546;BME280;39432;51.902;10.844;2023-05-19T06:01:20;100551.06;;;15.78;80.98
53546;BME280;39432;51.902;10.844;2023-05-19T06:03:51;100550.81;;;17.03;76.12
53546;BME280;39432;51.902;10.844;2023-05-19T06:06:25;100552.69;;;14.62;80.47
53546;BME280;39432;51.902;10.844;2023-05-19T06:08:55;100548.50;;;15.24;77.02
53546;BME280;39432;51.902;10.844;2023-05-19T06:11:26;100552.31;;;14.81;83.80
53546;BME280;39432;51.902;10.844;2023-05-19T06:13:57;100548.31;;;16.92;79.41
53546;BME280;39432;51.902;10.844;2023-05-19T06:16:46;100546.56;;;17.62;65.64
53546;BME280;39432;51.902;10.844;2023-05-19T06:19:17;100541.28;;;18.35;62.13
53546;BME280;39432;51.902;10.844;2023-05-19T06:21:49;100550.22;;;17.47;67.24
53546;BME280;39432;51.902;10.844;2023-05-19T06:24:19;100548.88;;;17.09;68.26
53546;BME280;39432;51.902;10.844;2023-05-19T06:26:49;100552.66;;;13.86;75.50
53546;BME280;39432;51.902;10.844;2023-05-19T06:29:19;100543.56;;;15.26;85.34
53546;BME280;39432;51.902;10.844;2023-05-19T06:31:51;100543.91;;;17.06;80.42
53546;BME280;39432;51.902;10.844;2023-05-19T06:34:21;100545.47;;;16.46;71.71
53546;BME280;39432;51.902;10.844;2023-05-19T06:36:53;100547.19;;;17.13;74.67
53546;BME280;39432;51.902;10.844;2023-05-19T06:39:23;100550.19;;;16.55;74.69
53546;BME280;39432;51.902;10.844;2023-05-19T06:41:53;100538.97;;;18.53;72.92
53546;BME280;39432;51.902;10.844;2023-05-19T06:44:42;100549.22;;;15.09;80.50
53546;BME280;39432;51.902;10.844;2023-05-19T06:47:14;100556.13;;;14.26;90.16
53546;BME280;39432;51.902;10.844;2023-05-19T06:49:45;100557.38;;;13.69;93.18
53546;BME280;39432;51.902;10.844;2023-05-19T06:52:19;100554.97;;;15.02;92.92
53546;BME280;39432;51.902;10.844;2023-05-19T06:54:49;100558.34;;;15.99;87.29
53546;BME280;39432;51.902;10.844;2023-05-19T06:57:19;100557.06;;;14.09;85.63
53546;BME280;39432;51.902;10.844;2023-05-19T06:59:50;100554.38;;;14.41;88.08
53546;BME280;39432;51.902;10.844;2023-05-19T07:02:19;100555.06;;;15.60;84.47
53546;BME280;39432;51.902;10.844;2023-05-19T07:04:49;100556.88;;;13.33;90.99
53546;BME280;39432;51.902;10.844;2023-05-19T07:07:23;100559.50;;;14.55;93.03
53546;BME280;39432;51.902;10.844;2023-05-19T07:09:55;100541.94;;;15.30;90.81
53546;BME280;39432;51.902;10.844;2023-05-19T07:12:25;100551.53;;;16.27;84.12
53546;BME280;39432;51.902;10.844;2023-05-19T07:14:56;100551.91;;;15.36;81.03
53546;BME280;39432;51.902;10.844;2023-05-19T07:17:27;100546.41;;;15.41;84.92
53546;BME280;39432;51.902;10.844;2023-05-19T07:19:57;100552.41;;;16.64;79.94
53546;BME280;39432;51.902;10.844;2023-05-19T07:22:30;100543.53;;;17.58;69.99
53546;BME280;39432;51.902;10.844;2023-05-19T07:25:00;100551.59;;;16.63;70.88
53546;BME280;39432;51.902;10.844;2023-05-19T07:27:31;100547.97;;;16.57;75.07
53546;BME280;39432;51.902;10.844;2023-05-19T07:30:01;100544.75;;;15.40;81.47
53546;BME280;39432;51.902;10.844;2023-05-19T07:32:33;100540.31;;;15.34;78.40
53546;BME280;39432;51.902;10.844;2023-05-19T07:35:04;100534.75;;;15.71;78.35
53546;BME280;39432;51.902;10.844;2023-05-19T07:37:37;100536.22;;;15.05;80.06
53546;BME280;39432;51.902;10.844;2023-05-19T07:40:08;100539.31;;;15.50;82.48
53546;BME280;39432;51.902;10.844;2023-05-19T07:42:38;100532.91;;;15.92;81.46
53546;BME280;39432;51.902;10.844;2023-05-19T07:45:08;100535.34;;;16.77;78.16
53546;BME280;39432;51.902;10.844;2023-05-19T07:47:38;100532.41;;;17.84;71.89
53546;BME280;39432;51.902;10.844;2023-05-19T07:50:08;100528.00;;;18.77;64.10
53546;BME280;39432;51.902;10.844;2023-05-19T07:52:40;100538.09;;;16.92;67.23
53546;BME280;39432;51.902;10.844;2023-05-19T07:55:10;100528.84;;;17.58;67.86
53546;BME280;39432;51.902;10.844;2023-05-19T07:57:40;100536.69;;;16.79;68.21
53546;BME280;39432;51.902;10.844;2023-05-19T08:00:11;100529.41;;;17.65;66.78
53546;BME280;39432;51.902;10.844;2023-05-19T08:02:41;100535.28;;;17.43;64.22
53546;BME280;39432;51.902;10.844;2023-05-19T08:05:11;100533.41;;;16.77;65.02
53546;BME280;39432;51.902;10.844;2023-05-19T08:07:44;100537.25;;;15.73;70.20
53546;BME280;39432;51.902;10.844;2023-05-19T08:10:14;100537.84;;;15.85;73.69
53546;BME280;39432;51.902;10.844;2023-05-19T08:12:44;100533.50;;;15.47;76.09
53546;BME280;39432;51.902;10.844;2023-05-19T08:15:13;100527.09;;;15.84;77.77
53546;BME280;39432;51.902;10.844;2023-05-19T08:17:44;100529.97;;;16.29;73.92
53546;BME280;39432;51.902;10.844;2023-05-19T08:20:14;100528.56;;;16.12;74.70
53546;BME280;39432;51.902;10.844;2023-05-19T08:22:47;100524.16;;;16.26;73.62
53546;BME280;39432;51.902;10.844;2023-05-19T08:25:17;100522.28;;;16.62;73.59
53546;BME280;39432;51.902;10.844;2023-05-19T08:27:46;100517.75;;;17.68;68.19
53546;BME280;39432;51.902;10.844;2023-05-19T08:30:16;100523.59;;;17.56;68.97
53546;BME280;39432;51.902;10.844;2023-05-19T08:32:46;100513.97;;;17.38;65.30
53546;BME280;39432;51.902;10.844;2023-05-19T08:35:17;100512.69;;;18.40;65.06
53546;BME280;39432;51.902;10.844;2023-05-19T08:37:49;100516.53;;;17.15;66.20
53546;BME280;39432;51.902;10.844;2023-05-19T08:40:19;100513.63;;;17.65;64.76
53546;BME280;39432;51.902;10.844;2023-05-19T08:42:49;100516.53;;;16.74;65.33
53546;BME280;39432;51.902;10.844;2023-05-19T08:45:19;100514.84;;;17.19;70.33
53546;BME280;39432;51.902;10.844;2023-05-19T08:47:50;100501.06;;;16.93;67.39
53546;BME280;39432;51.902;10.844;2023-05-19T08:50:23;100502.94;;;16.47;71.77
53546;BME280;39432;51.902;10.844;2023-05-19T08:53:02;100495.94;;;15.93;76.03
53546;BME280;39432;51.902;10.844;2023-05-19T08:56:00;100503.06;;;15.84;73.87
53546;BME280;39432;51.902;10.844;2023-05-19T08:58:31;100498.75;;;16.19;71.26
53546;BME280;39432;51.902;10.844;2023-05-19T09:01:02;100488.34;;;16.72;73.13
53546;BME280;39432;51.902;10.844;2023-05-19T09:03:32;100492.63;;;16.01;75.96
53546;BME280;39432;51.902;10.844;2023-05-19T09:06:05;100489.38;;;16.35;70.93
53546;BME280;39432;51.902;10.844;2023-05-19T09:08:38;100503.69;;;15.44;71.09
53546;BME280;39432;51.902;10.844;2023-05-19T09:11:09;100489.94;;;16.32;72.10
53546;BME280;39432;51.902;10.844;2023-05-19T09:13:39;100491.06;;;16.56;71.23
53546;BME280;39432;51.902;10.844;2023-05-19T09:16:09;100491.44;;;15.82;71.32
53546;BME280;39432;51.902;10.844;2023-05-19T09:18:39;100478.88;;;15.44;74.16
53546;BME280;39432;51.902;10.844;2023-05-19T09:21:26;100500.38;;;16.04;73.55
53546;BME280;39432;51.902;10.844;2023-05-19T09:24:03;100492.44;;;15.55;73.79
53546;BME280;39432;51.902;10.844;2023-05-19T09:26:37;100492.06;;;15.89;72.99
53546;BME280;39432;51.902;10.844;2023-05-19T09:29:11;100480.81;;;16.21;70.23
53546;BME280;39432;51.902;10.844;2023-05-19T09:31:47;100490.97;;;15.95;72.56
53546;BME280;39432;51.902;10.844;2023-05-19T09:34:18;100483.31;;;16.23;70.66
53546;BME280;39432;51.902;10.844;2023-05-19T09:36:50;100479.97;;;16.26;71.75
53546;BME280;39432;51.902;10.844;2023-05-19T09:39:23;100486.09;;;16.43;68.86
53546;BME280;39432;51.902;10.844;2023-05-19T09:41:55;100471.75;;;16.87;69.05
53546;BME280;39432;51.902;10.844;2023-05-19T09:44:26;100477.75;;;16.18;72.53
53546;BME280;39432;51.902;10.844;2023-05-19T09:46:57;100476.72;;;17.00;69.82
53546;BME280;39432;51.902;10.844;2023-05-19T09:49:28;100465.63;;;17.05;70.89
53546;BME280;39432;51.902;10.844;2023-05-19T09:52:02;100467.88;;;17.03;68.10
53546;BME280;39432;51.902;10.844;2023-05-19T09:54:35;100458.69;;;17.23;66.08
53546;BME280;39432;51.902;10.844;2023-05-19T09:57:05;100463.47;;;16.92;67.07
53546;BME280;39432;51.902;10.844;2023-05-19T09:59:37;100468.97;;;16.46;70.01
53546;BME280;39432;51.902;10.844;2023-05-19T10:02:14;100449.06;;;16.95;67.75
53546;BME280;39432;51.902;10.844;2023-05-19T10:04:47;100454.81;;;17.94;65.00
53546;BME280;39432;51.902;10.844;2023-05-19T10:07:18;100448.72;;;17.97;65.74
53546;BME280;39432;51.902;10.844;2023-05-19T10:09:53;100457.44;;;17.60;64.26
53546;BME280;39432;51.902;10.844;2023-05-19T10:12:25;100438.63;;;18.11;63.82
53546;BME280;39432;51.902;10.844;2023-05-19T10:14:56;100461.22;;;16.58;63.80
53546;BME280;39432;51.902;10.844;2023-05-19T10:17:27;100450.75;;;16.76;64.98
53546;BME280;39432;51.902;10.844;2023-05-19T10:19:58;100444.66;;;16.79;66.82
53546;BME280;39432;51.902;10.844;2023-05-19T10:22:30;100439.34;;;17.88;62.66
53546;BME280;39432;51.902;10.844;2023-05-19T10:25:03;100445.75;;;16.98;62.64
53546;BME280;39432;51.902;10.844;2023-05-19T10:27:35;100441.25;;;17.23;61.77
53546;BME280;39432;51.902;10.844;2023-05-19T10:30:07;100441.88;;;16.64;64.16
53546;BME280;39432;51.902;10.844;2023-05-19T10:32:43;100432.41;;;17.26;66.09
53546;BME280;39432;51.902;10.844;2023-05-19T10:35:22;100430.22;;;17.18;65.37
53546;BME280;39432;51.902;10.844;2023-05-19T10:38:07;100429.75;;;17.65;66.16
53546;BME280;39432;51.902;10.844;2023-05-19T10:40:52;100436.88;;;16.96;67.22
53546;BME280;39432;51.902;10.844;2023-05-19T10:43:27;100431.06;;;17.83;66.33
53546;BME280;39432;51.902;10.844;2023-05-19T10:46:00;100431.72;;;17.59;63.53
53546;BME280;39432;51.902;10.844;2023-05-19T10:48:32;100421.41;;;17.80;62.49
53546;BME280;39432;51.902;10.844;2023-05-19T10:51:04;100420.81;;;17.08;64.14
53546;BME280;39432;51.902;10.844;2023-05-19T10:53:40;100422.28;;;16.34;67.55
53546;BME280;39432;51.902;10.844;2023-05-19T10:56:27;100421.34;;;17.21;66.83
53546;BME280;39432;51.902;10.844;2023-05-19T10:59:02;100422.97;;;17.37;66.90
53546;BME280;39432;51.902;10.844;2023-05-19T11:01:33;100422.47;;;17.20;62.55
53546;BME280;39432;51.902;10.844;2023-05-19T11:04:05;100419.78;;;16.53;63.92
53546;BME280;39432;51.902;10.844;2023-05-19T11:06:38;100408.34;;;17.26;65.83
53546;BME280;39432;51.902;10.844;2023-05-19T11:09:13;100412.72;;;17.37;63.46
53546;BME280;39432;51.902;10.844;2023-05-19T11:11:47;100414.25;;;16.94;64.85
53546;BME280;39432;51.902;10.844;2023-05-19T11:14:19;100411.97;;;17.06;67.17
53546;BME280;39432;51.902;10.844;2023-05-19T11:16:51;100411.97;;;17.06;69.46
53546;BME280;39432;51.902;10.844;2023-05-19T11:19:25;100413.63;;;17.07;67.02
53546;BME280;39432;51.902;10.844;2023-05-19T11:21:56;100407.97;;;17.48;67.09
53546;BME280;39432;51.902;10.844;2023-05-19T11:24:33;100398.59;;;17.39;65.55
53546;BME280;39432;51.902;10.844;2023-05-19T11:27:20;100400.47;;;17.54;68.42
53546;BME280;39432;51.902;10.844;2023-05-19T11:29:50;100408.06;;;17.23;67.78
53546;BME280;39432;51.902;10.844;2023-05-19T11:32:21;100397.06;;;16.97;66.65
53546;BME280;39432;51.902;10.844;2023-05-19T11:34:51;100397.28;;;17.26;64.64
53546;BME280;39432;51.902;10.844;2023-05-19T11:37:21;100388.50;;;16.99;65.62
53546;BME280;39432;51.902;10.844;2023-05-19T11:39:52;100386.22;;;17.86;63.33
53546;BME280;39432;51.902;10.844;2023-05-19T11:42:24;100390.69;;;17.72;62.20
53546;BME280;39432;51.902;10.844;2023-05-19T11:44:54;100394.13;;;17.48;60.81
53546;BME280;39432;51.902;10.844;2023-05-19T11:47:24;100389.47;;;17.93;60.93
53546;BME280;39432;51.902;10.844;2023-05-19T11:50:01;100383.28;;;17.57;61.26
53546;BME280;39432;51.902;10.844;2023-05-19T11:52:32;100382.34;;;17.82;60.71
53546;BME280;39432;51.902;10.844;2023-05-19T11:55:02;100376.97;;;17.96;58.20
53546;BME280;39432;51.902;10.844;2023-05-19T11:57:34;100378.78;;;18.15;60.73
53546;BME280;39432;51.902;10.844;2023-05-19T12:00:07;100363.16;;;18.30;61.79
53546;BME280;39432;51.902;10.844;2023-05-19T12:02:38;100371.13;;;18.71;59.38
53546;BME280;39432;51.902;10.844;2023-05-19T12:05:17;100378.72;;;18.84;57.73
53546;BME280;39432;51.902;10.844;2023-05-19T12:07:47;100380.53;;;18.01;55.35
53546;BME280;39432;51.902;10.844;2023-05-19T12:10:21;100384.13;;;17.52;57.52
53546;BME280;39432;51.902;10.844;2023-05-19T12:12:54;100366.66;;;18.06;58.35
53546;BME280;39432;51.902;10.844;2023-05-19T12:15:24;100377.28;;;17.94;57.58
53546;BME280;39432;51.902;10.844;2023-05-19T12:17:56;100375.84;;;18.65;55.47
53546;BME280;39432;51.902;10.844;2023-05-19T12:20:28;100375.38;;;18.58;57.34
53546;BME280;39432;51.902;10.844;2023-05-19T12:23:02;100372.16;;;18.11;56.08
53546;BME280;39432;51.902;10.844;2023-05-19T12:25:32;100369.94;;;18.13;56.20
53546;BME280;39432;51.902;10.844;2023-05-19T12:28:06;100380.53;;;17.52;55.06
53546;BME280;39432;51.902;10.844;2023-05-19T12:30:37;100372.41;;;17.71;54.48
53546;BME280;39432;51.902;10.844;2023-05-19T12:33:07;100372.97;;;17.68;53.61
53546;BME280;39432;51.902;10.844;2023-05-19T12:35:38;100360.94;;;17.98;53.65
53546;BME280;39432;51.902;10.844;2023-05-19T12:38:08;100371.28;;;18.50;54.31
53546;BME280;39432;51.902;10.844;2023-05-19T12:40:38;100374.13;;;17.61;54.74
53546;BME280;39432;51.902;10.844;2023-05-19T12:43:20;100348.00;;;18.17;56.13
53546;BME280;39432;51.902;10.844;2023-05-19T12:45:50;100363.00;;;17.72;56.45
53546;BME280;39432;51.902;10.844;2023-05-19T12:48:21;100367.91;;;17.30;56.04
53546;BME280;39432;51.902;10.844;2023-05-19T12:50:51;100368.75;;;17.31;56.55
53546;BME280;39432;51.902;10.844;2023-05-19T12:53:25;100359.28;;;17.47;55.25
53546;BME280;39432;51.902;10.844;2023-05-19T12:55:55;100359.16;;;17.62;54.70
53546;BME280;39432;51.902;10.844;2023-05-19T12:58:32;100359.47;;;17.61;53.06
53546;BME280;39432;51.902;10.844;2023-05-19T13:01:02;100355.72;;;17.91;52.83
53546;BME280;39432;51.902;10.844;2023-05-19T13:03:38;100352.03;;;17.51;52.90
53546;BME280;39432;51.902;10.844;2023-05-19T13:06:09;100345.06;;;18.37;53.33
53546;BME280;39432;51.902;10.844;2023-05-19T13:08:39;100353.94;;;18.05;53.00